BEE5NH EGNS-EGLC
Flight info
| Callsign | BEE5NH |
|---|---|
| Flight time | 1h 7m |
| Altitude | 19000 |
| Route | TIMIS Q39 NOMSU Q4 WAL L10 HON |
| Aircraft | DH8D/M-SDE2E3FGRY/H |
Departure
| Time | 2026-05-04 08:48 |
|---|---|
| Airport | Isle of Man Airport (EGNS) |
Arrival
| Time | 2026-05-04 09:55 |
|---|---|
| Airport | London City Airport (EGLC) |
| Time | Latitude | Longitude | Altitude | Speed | Heading |
|---|---|---|---|---|---|
| 2026-05-04 08:31 | 54.08516 | -4.63398 | 9 ft | 0 kts | 224° |
| 2026-05-04 08:41 | 54.08523 | -4.63385 | 9 ft | 1 kts | 224° |
| 2026-05-04 08:42 | 54.08531 | -4.63375 | 9 ft | 2 kts | 200° |
| 2026-05-04 08:42 | 54.08546 | -4.63374 | 9 ft | 2 kts | 158° |
| 2026-05-04 08:42 | 54.08555 | -4.63384 | 9 ft | 1 kts | 133° |
| 2026-05-04 08:42 | 54.08556 | -4.63385 | 9 ft | 0 kts | 133° |
| 2026-05-04 08:44 | 54.08550 | -4.63375 | 9 ft | 5 kts | 133° |
| 2026-05-04 08:46 | 54.08284 | -4.63774 | 9 ft | 16 kts | 240° |
| 2026-05-04 08:46 | 54.08226 | -4.63904 | 9 ft | 12 kts | 201° |
| 2026-05-04 08:46 | 54.08150 | -4.63873 | 9 ft | 10 kts | 127° |
| 2026-05-04 08:46 | 54.08148 | -4.63816 | 9 ft | 0 kts | 77° |
| 2026-05-04 08:47 | 54.08190 | -4.63483 | 9 ft | 73 kts | 78° |
| 2026-05-04 08:47 | 54.08350 | -4.62181 | 12 ft | 144 kts | 77° |
| 2026-05-04 08:48 | 54.08544 | -4.60379 | 396 ft | 158 kts | 78° |
| 2026-05-04 08:48 | 54.08711 | -4.58555 | 1113 ft | 159 kts | 78° |
| 2026-05-04 08:48 | 54.08865 | -4.56697 | 1787 ft | 163 kts | 79° |
| 2026-05-04 08:48 | 54.08674 | -4.54791 | 2422 ft | 172 kts | 119° |
| 2026-05-04 08:49 | 54.07796 | -4.53411 | 3083 ft | 175 kts | 141° |
| 2026-05-04 08:50 | 54.00881 | -4.48924 | 7246 ft | 185 kts | 160° |
| 2026-05-04 08:50 | 53.99616 | -4.48153 | 7630 ft | 209 kts | 160° |
| 2026-05-04 08:51 | 53.98178 | -4.47274 | 8040 ft | 225 kts | 159° |
| 2026-05-04 08:51 | 53.96690 | -4.46357 | 8655 ft | 234 kts | 159° |
| 2026-05-04 08:51 | 53.95161 | -4.45418 | 9317 ft | 236 kts | 159° |
| 2026-05-04 08:51 | 53.93593 | -4.44458 | 9804 ft | 241 kts | 159° |
| 2026-05-04 08:52 | 53.92016 | -4.43489 | 10342 ft | 242 kts | 159° |
| 2026-05-04 08:52 | 53.90430 | -4.42515 | 10869 ft | 244 kts | 159° |
| 2026-05-04 08:52 | 53.88848 | -4.41542 | 11421 ft | 244 kts | 159° |
| 2026-05-04 08:52 | 53.87283 | -4.40381 | 11891 ft | 245 kts | 143° |
| 2026-05-04 08:53 | 53.86152 | -4.38276 | 12346 ft | 245 kts | 123° |
| 2026-05-04 08:54 | 53.79224 | -4.21234 | 15562 ft | 256 kts | 123° |
| 2026-05-04 08:55 | 53.78210 | -4.18761 | 15986 ft | 257 kts | 123° |
| 2026-05-04 08:55 | 53.77195 | -4.16285 | 16403 ft | 258 kts | 123° |
| 2026-05-04 08:55 | 53.76170 | -4.13789 | 16776 ft | 260 kts | 123° |
| 2026-05-04 08:55 | 53.75127 | -4.11254 | 17174 ft | 261 kts | 123° |
| 2026-05-04 08:57 | 53.67671 | -3.93202 | 19044 ft | 291 kts | 123° |
| 2026-05-04 09:01 | 53.48535 | -3.47541 | 19039 ft | 361 kts | 123° |
| 2026-05-04 09:01 | 53.47102 | -3.44107 | 19032 ft | 361 kts | 121° |
| 2026-05-04 09:01 | 53.45967 | -3.40383 | 19056 ft | 359 kts | 111° |
| 2026-05-04 09:01 | 53.44983 | -3.36473 | 19040 ft | 359 kts | 111° |
| 2026-05-04 09:02 | 53.44014 | -3.32613 | 19032 ft | 360 kts | 111° |
| 2026-05-04 09:02 | 53.43038 | -3.28734 | 19037 ft | 360 kts | 112° |
| 2026-05-04 09:02 | 53.42062 | -3.24874 | 19040 ft | 360 kts | 112° |
| 2026-05-04 09:02 | 53.41082 | -3.21013 | 19037 ft | 360 kts | 112° |
| 2026-05-04 09:03 | 53.40092 | -3.17124 | 19045 ft | 360 kts | 112° |
| 2026-05-04 09:03 | 53.38934 | -3.13405 | 19012 ft | 362 kts | 125° |
| 2026-05-04 09:03 | 53.37159 | -3.10457 | 19074 ft | 361 kts | 137° |
| 2026-05-04 09:03 | 53.35236 | -3.07638 | 19069 ft | 362 kts | 138° |
| 2026-05-04 09:04 | 53.33322 | -3.04849 | 19057 ft | 363 kts | 138° |
| 2026-05-04 09:04 | 53.31411 | -3.02073 | 19047 ft | 363 kts | 138° |
| 2026-05-04 09:04 | 53.29512 | -2.99311 | 19043 ft | 364 kts | 138° |
| 2026-05-04 09:04 | 53.27604 | -2.96538 | 19047 ft | 364 kts | 138° |
| 2026-05-04 09:05 | 53.25668 | -2.93726 | 19049 ft | 363 kts | 138° |
| 2026-05-04 09:05 | 53.23750 | -2.90941 | 19052 ft | 363 kts | 138° |
| 2026-05-04 09:05 | 53.21843 | -2.88175 | 19050 ft | 363 kts | 138° |
| 2026-05-04 09:05 | 53.19930 | -2.85402 | 19048 ft | 363 kts | 138° |
| 2026-05-04 09:06 | 53.18012 | -2.82624 | 19047 ft | 364 kts | 138° |
| 2026-05-04 09:07 | 53.05129 | -2.62369 | 19037 ft | 363 kts | 133° |
| 2026-05-04 09:08 | 53.03389 | -2.59330 | 19025 ft | 363 kts | 132° |
| 2026-05-04 09:08 | 53.01623 | -2.56246 | 19028 ft | 363 kts | 132° |
| 2026-05-04 09:08 | 52.99871 | -2.53190 | 19029 ft | 363 kts | 132° |
| 2026-05-04 09:08 | 52.98118 | -2.50134 | 19030 ft | 363 kts | 133° |
| 2026-05-04 09:09 | 52.96368 | -2.47086 | 19031 ft | 364 kts | 133° |
| 2026-05-04 09:09 | 52.94638 | -2.44078 | 19029 ft | 364 kts | 132° |
| 2026-05-04 09:09 | 52.92873 | -2.41012 | 19029 ft | 364 kts | 133° |
| 2026-05-04 09:09 | 52.91115 | -2.37961 | 19028 ft | 364 kts | 133° |
| 2026-05-04 09:10 | 52.89367 | -2.34931 | 19024 ft | 362 kts | 134° |
| 2026-05-04 09:10 | 52.87618 | -2.31901 | 19029 ft | 362 kts | 134° |
| 2026-05-04 09:10 | 52.85864 | -2.28870 | 19022 ft | 362 kts | 134° |
| 2026-05-04 09:10 | 52.84111 | -2.25844 | 19021 ft | 362 kts | 134° |
| 2026-05-04 09:11 | 52.82400 | -2.22891 | 19015 ft | 360 kts | 134° |
| 2026-05-04 09:11 | 52.80659 | -2.19890 | 19020 ft | 360 kts | 134° |
| 2026-05-04 09:11 | 52.78908 | -2.16878 | 19022 ft | 360 kts | 134° |
| 2026-05-04 09:11 | 52.77190 | -2.13926 | 19023 ft | 360 kts | 134° |
| 2026-05-04 09:12 | 52.75448 | -2.10935 | 19022 ft | 361 kts | 134° |
| 2026-05-04 09:12 | 52.73687 | -2.07918 | 19022 ft | 361 kts | 134° |
| 2026-05-04 09:14 | 52.61414 | -1.86980 | 19029 ft | 361 kts | 135° |
| 2026-05-04 09:14 | 52.59643 | -1.83974 | 19030 ft | 361 kts | 134° |
| 2026-05-04 09:14 | 52.57886 | -1.80995 | 19028 ft | 361 kts | 134° |
| 2026-05-04 09:14 | 52.56129 | -1.78019 | 19032 ft | 361 kts | 134° |
| 2026-05-04 09:15 | 52.54389 | -1.75077 | 19031 ft | 361 kts | 135° |
| 2026-05-04 09:15 | 52.52620 | -1.72088 | 19031 ft | 361 kts | 135° |
| 2026-05-04 09:15 | 52.50863 | -1.69123 | 19033 ft | 362 kts | 135° |
| 2026-05-04 09:15 | 52.49092 | -1.66139 | 19033 ft | 362 kts | 135° |
| 2026-05-04 09:17 | 52.35558 | -1.41731 | 19050 ft | 363 kts | 109° |
| 2026-05-04 09:18 | 52.34907 | -1.37708 | 19022 ft | 365 kts | 104° |
| 2026-05-04 09:18 | 52.34304 | -1.33621 | 19022 ft | 365 kts | 105° |
| 2026-05-04 09:18 | 52.33728 | -1.29581 | 19032 ft | 365 kts | 104° |
| 2026-05-04 09:18 | 52.33158 | -1.25530 | 19037 ft | 365 kts | 104° |
| 2026-05-04 09:19 | 52.32594 | -1.21486 | 19036 ft | 365 kts | 104° |
| 2026-05-04 09:19 | 52.32026 | -1.17399 | 19033 ft | 364 kts | 104° |
| 2026-05-04 09:19 | 52.31466 | -1.13354 | 19030 ft | 365 kts | 104° |
| 2026-05-04 09:19 | 52.30906 | -1.09306 | 19027 ft | 365 kts | 104° |
| 2026-05-04 09:20 | 52.30343 | -1.05229 | 19030 ft | 365 kts | 104° |
| 2026-05-04 09:20 | 52.29788 | -1.01215 | 19029 ft | 365 kts | 104° |
| 2026-05-04 09:20 | 52.29226 | -0.97152 | 19031 ft | 365 kts | 104° |
| 2026-05-04 09:20 | 52.28658 | -0.93058 | 19031 ft | 365 kts | 104° |
| 2026-05-04 09:21 | 52.28095 | -0.89000 | 19025 ft | 365 kts | 104° |
| 2026-05-04 09:21 | 52.27526 | -0.84909 | 19029 ft | 365 kts | 104° |
| 2026-05-04 09:21 | 52.26963 | -0.80872 | 19033 ft | 366 kts | 104° |
| 2026-05-04 09:21 | 52.26395 | -0.76810 | 19028 ft | 366 kts | 104° |
| 2026-05-04 09:22 | 52.25823 | -0.72725 | 19023 ft | 366 kts | 104° |
| 2026-05-04 09:22 | 52.25253 | -0.68669 | 19029 ft | 366 kts | 104° |
| 2026-05-04 09:22 | 52.24678 | -0.64587 | 19022 ft | 366 kts | 104° |
| 2026-05-04 09:22 | 52.24110 | -0.60568 | 19022 ft | 366 kts | 104° |
| 2026-05-04 09:23 | 52.23533 | -0.56488 | 19023 ft | 366 kts | 104° |
| 2026-05-04 09:23 | 52.22955 | -0.52413 | 19020 ft | 366 kts | 104° |
| 2026-05-04 09:23 | 52.22375 | -0.48342 | 19022 ft | 366 kts | 104° |
| 2026-05-04 09:23 | 52.21800 | -0.44309 | 19015 ft | 366 kts | 104° |
| 2026-05-04 09:25 | 52.17725 | -0.16050 | 19015 ft | 365 kts | 105° |
| 2026-05-04 09:25 | 52.17137 | -0.12015 | 19013 ft | 365 kts | 105° |
| 2026-05-04 09:26 | 52.16554 | -0.08024 | 19016 ft | 365 kts | 105° |
| 2026-05-04 09:26 | 52.15960 | -0.03970 | 19012 ft | 365 kts | 105° |
| 2026-05-04 09:26 | 52.15369 | 0.00065 | 19011 ft | 365 kts | 105° |
| 2026-05-04 09:26 | 52.14781 | 0.04054 | 19011 ft | 365 kts | 105° |
| 2026-05-04 09:27 | 52.14185 | 0.08093 | 19014 ft | 366 kts | 105° |
| 2026-05-04 09:27 | 52.13581 | 0.12173 | 19011 ft | 366 kts | 105° |
| 2026-05-04 09:27 | 52.13057 | 0.16209 | 19009 ft | 366 kts | 100° |
| 2026-05-04 09:27 | 52.12709 | 0.20308 | 19006 ft | 367 kts | 98° |
| 2026-05-04 09:28 | 52.12378 | 0.24409 | 19008 ft | 367 kts | 98° |
| 2026-05-04 09:28 | 52.12045 | 0.28531 | 19009 ft | 368 kts | 98° |
| 2026-05-04 09:28 | 52.11709 | 0.32660 | 19014 ft | 368 kts | 98° |
| 2026-05-04 09:28 | 52.11367 | 0.36814 | 19004 ft | 368 kts | 99° |
| 2026-05-04 09:29 | 52.11026 | 0.40924 | 19006 ft | 369 kts | 99° |
| 2026-05-04 09:29 | 52.10681 | 0.45055 | 19000 ft | 369 kts | 99° |
| 2026-05-04 09:29 | 52.10333 | 0.49209 | 19003 ft | 369 kts | 99° |
| 2026-05-04 09:29 | 52.09920 | 0.53359 | 19002 ft | 369 kts | 101° |
| 2026-05-04 09:30 | 52.09463 | 0.57435 | 18992 ft | 368 kts | 101° |
| 2026-05-04 09:30 | 52.09001 | 0.61562 | 18971 ft | 368 kts | 101° |
| 2026-05-04 09:30 | 52.08530 | 0.65736 | 18650 ft | 374 kts | 102° |
| 2026-05-04 09:30 | 52.08053 | 0.69836 | 18218 ft | 372 kts | 103° |
| 2026-05-04 09:31 | 52.07069 | 0.73678 | 17662 ft | 364 kts | 124° |
| 2026-05-04 09:31 | 52.05596 | 0.76933 | 17035 ft | 355 kts | 129° |
| 2026-05-04 09:31 | 52.04095 | 0.80094 | 16250 ft | 352 kts | 129° |
| 2026-05-04 09:31 | 52.02605 | 0.83203 | 15794 ft | 340 kts | 129° |
| 2026-05-04 09:32 | 52.01172 | 0.86184 | 15437 ft | 328 kts | 130° |
| 2026-05-04 09:32 | 51.99775 | 0.89077 | 15121 ft | 333 kts | 130° |
| 2026-05-04 09:34 | 51.89902 | 1.09376 | 12787 ft | 342 kts | 129° |
| 2026-05-04 09:34 | 51.87942 | 1.13394 | 12315 ft | 336 kts | 129° |
| 2026-05-04 09:34 | 51.86505 | 1.16336 | 11983 ft | 327 kts | 129° |
| 2026-05-04 09:34 | 51.85133 | 1.19145 | 11660 ft | 318 kts | 129° |
| 2026-05-04 09:35 | 51.83776 | 1.21921 | 11350 ft | 308 kts | 129° |
| 2026-05-04 09:35 | 51.82470 | 1.24588 | 11042 ft | 300 kts | 129° |
| 2026-05-04 09:35 | 51.81187 | 1.27205 | 10743 ft | 293 kts | 130° |
| 2026-05-04 09:35 | 51.79921 | 1.29784 | 10439 ft | 282 kts | 129° |
| 2026-05-04 09:37 | 51.71790 | 1.41653 | 9019 ft | 271 kts | 192° |
| 2026-05-04 09:38 | 51.66410 | 1.31069 | 8992 ft | 283 kts | 249° |
| 2026-05-04 09:38 | 51.66177 | 1.30068 | 8988 ft | 284 kts | 249° |
| 2026-05-04 09:39 | 51.65020 | 1.25037 | 8989 ft | 287 kts | 249° |
| 2026-05-04 09:39 | 51.64328 | 1.22009 | 8987 ft | 288 kts | 249° |
| 2026-05-04 09:39 | 51.63631 | 1.18959 | 8994 ft | 289 kts | 249° |
| 2026-05-04 09:39 | 51.62943 | 1.15942 | 8987 ft | 290 kts | 250° |
| 2026-05-04 09:40 | 51.62238 | 1.12854 | 8990 ft | 291 kts | 250° |
| 2026-05-04 09:40 | 51.61546 | 1.09823 | 8991 ft | 291 kts | 250° |
| 2026-05-04 09:40 | 51.60845 | 1.06758 | 8994 ft | 291 kts | 250° |
| 2026-05-04 09:40 | 51.60139 | 1.03668 | 8993 ft | 292 kts | 250° |
| 2026-05-04 09:41 | 51.59671 | 1.01624 | 8998 ft | 289 kts | 250° |
| 2026-05-04 09:42 | 51.54690 | 0.79971 | 9007 ft | 284 kts | 250° |
| 2026-05-04 09:43 | 51.53999 | 0.76984 | 8842 ft | 288 kts | 250° |
| 2026-05-04 09:43 | 51.53771 | 0.76001 | 8750 ft | 289 kts | 250° |
| 2026-05-04 09:44 | 51.50162 | 0.60543 | 6844 ft | 247 kts | 250° |
| 2026-05-04 09:46 | 51.46062 | 0.43024 | 4613 ft | 237 kts | 250° |
| 2026-05-04 09:46 | 51.45486 | 0.40570 | 4285 ft | 237 kts | 250° |
| 2026-05-04 09:46 | 51.44892 | 0.38076 | 3956 ft | 236 kts | 250° |
| 2026-05-04 09:47 | 51.44513 | 0.36462 | 3767 ft | 234 kts | 251° |
| 2026-05-04 09:47 | 51.43744 | 0.33208 | 3352 ft | 231 kts | 250° |
| 2026-05-04 09:49 | 51.43476 | 0.17126 | 2907 ft | 201 kts | 275° |
| 2026-05-04 09:49 | 51.43557 | 0.14845 | 2734 ft | 209 kts | 275° |
| 2026-05-04 09:49 | 51.43639 | 0.12463 | 2551 ft | 217 kts | 275° |
| 2026-05-04 09:51 | 51.44119 | -0.02617 | 1982 ft | 222 kts | 275° |
| 2026-05-04 09:51 | 51.44194 | -0.05075 | 1969 ft | 218 kts | 275° |
| 2026-05-04 09:51 | 51.44272 | -0.07464 | 1965 ft | 214 kts | 277° |
| 2026-05-04 09:51 | 51.44750 | -0.09560 | 1958 ft | 192 kts | 316° |
| 2026-05-04 09:52 | 51.45828 | -0.10486 | 1995 ft | 169 kts | 345° |
| 2026-05-04 09:52 | 51.46932 | -0.11009 | 1980 ft | 163 kts | 346° |
| 2026-05-04 09:52 | 51.47989 | -0.11483 | 1972 ft | 157 kts | 347° |
| 2026-05-04 09:52 | 51.49052 | -0.11619 | 1949 ft | 146 kts | 17° |
| 2026-05-04 09:53 | 51.49787 | -0.10685 | 1956 ft | 136 kts | 55° |
| 2026-05-04 09:53 | 51.50323 | -0.09477 | 1996 ft | 132 kts | 52° |
| 2026-05-04 09:53 | 51.50846 | -0.08268 | 1981 ft | 133 kts | 60° |
| 2026-05-04 09:53 | 51.51089 | -0.06843 | 1972 ft | 134 kts | 83° |
| 2026-05-04 09:54 | 51.51019 | -0.05360 | 1970 ft | 135 kts | 96° |
| 2026-05-04 09:54 | 51.50856 | -0.03899 | 1962 ft | 134 kts | 96° |
| 2026-05-04 09:54 | 51.50735 | -0.02333 | 1684 ft | 150 kts | 91° |
| 2026-05-04 09:54 | 51.50684 | -0.00616 | 1250 ft | 159 kts | 89° |
| 2026-05-04 09:55 | 51.50663 | 0.01151 | 744 ft | 161 kts | 90° |
| 2026-05-04 09:55 | 51.50598 | 0.02918 | 327 ft | 158 kts | 91° |
| 2026-05-04 09:55 | 51.50549 | 0.04631 | 31 ft | 144 kts | 91° |
| 2026-05-04 09:55 | 51.50514 | 0.05856 | 23 ft | 43 kts | 93° |
| 2026-05-04 09:56 | 51.50492 | 0.06037 | 23 ft | 10 kts | 156° |
| 2026-05-04 09:56 | 51.50428 | 0.05959 | 23 ft | 18 kts | 251° |
| 2026-05-04 09:56 | 51.50435 | 0.05663 | 23 ft | 34 kts | 271° |
| 2026-05-04 09:56 | 51.50438 | 0.05524 | 23 ft | 8 kts | 272° |
| 2026-05-04 09:57 | 51.50441 | 0.05436 | 23 ft | 7 kts | 272° |
| 2026-05-04 09:57 | 51.50444 | 0.05359 | 23 ft | 6 kts | 273° |
| 2026-05-04 09:57 | 51.50443 | 0.05292 | 23 ft | 5 kts | 243° |
| 2026-05-04 09:57 | 51.50417 | 0.05277 | 23 ft | 0 kts | 182° |
| 2026-05-04 09:58 | 51.50410 | 0.05277 | 23 ft | 1 kts | 181° |
| 2026-05-04 09:58 | 51.50405 | 0.05277 | 23 ft | 0 kts | 182° |